Home > Products > Valid Products > TAF

000
FTUS44 KFWD 222000 AAA
TAFACT
TAF AMD
KACT 222056Z 2221/2318 11007KT P6SM FEW040 SCT200
     FM230900 13006KT P6SM SCT100 BKN200=



000
FTUS44 KFWD 222000 AAA
TAFFTW
TAF AMD
KFTW 222056Z 2221/2318 13008KT P6SM SCT040 SCT200
     FM230500 14006KT P6SM VCSH BKN050 BKN100
     FM231200 15005KT P6SM SCT050 SCT200=



000
FTUS44 KFWD 222000 AAA
TAFDFW
TAF AMD
KDFW 222056Z 2221/2324 13008KT P6SM SCT040 SCT200
     FM230500 14006KT P6SM VCSH BKN050 BKN100
     FM231200 15005KT P6SM SCT050 SCT200=



000
FTUS44 KFWD 221700
TAFACT
TAF
KACT 221720Z 2218/2318 11007KT P6SM FEW040 SCT200
     FM230900 13006KT P6SM SCT100 BKN200=



000
FTUS44 KFWD 221700
TAFDFW
TAF
KDFW 221720Z 2218/2324 13008KT P6SM SCT040 SCT200
     FM230500 15006KT P6SM VCSH BKN050 BKN100
     FM231200 15005KT P6SM SCT050 SCT200=



000
FTUS44 KFWD 221700
TAFFTW
TAF
KFTW 221720Z 2218/2318 13008KT P6SM SCT040 SCT200
     FM230500 15006KT P6SM VCSH BKN050 BKN100
     FM231200 15005KT P6SM SCT050 SCT200=



000
FTUS44 KFWD 221700
TAFDFW
TAF
KDFW 221720Z 2218/2324 13008KT P6SM SCT040 SCT200
     FM230500 15006KT P6SM VCSH BKN050 BKN100
     FM231200 15005KT P6SM SCT050 SCT200=



000
FTUS44 KFWD 221700
TAFACT
TAF
KACT 221720Z 2218/2318 11007KT P6SM FEW040 SCT200
     FM230900 13006KT P6SM SCT100 BKN200=



000
FTUS44 KFWD 221700
TAFFTW
TAF
KFTW 221720Z 2218/2318 13008KT P6SM SCT040 SCT200
     FM230500 15006KT P6SM VCSH BKN050 BKN100
     FM231200 15005KT P6SM SCT050 SCT200=



000
FTUS44 KFWD 221500 AAA
TAFACT
TAF AMD
KACT 221507Z 2215/2312 11007KT P6SM SCT150 SCT250
     FM221900 11007KT P6SM SCT040 SCT250=



000
FTUS44 KFWD 221500 AAA
TAFDFW
TAF AMD
KDFW 221507Z 2215/2318 12004KT P6SM FEW250
     FM221700 13008KT P6SM SCT040 SCT200=



000
FTUS44 KFWD 221500 AAA
TAFFTW
TAF AMD
KFTW 221507Z 2215/2312 12004KT P6SM FEW250
     FM221700 13008KT P6SM SCT040 SCT200=



000
FTUS44 KFWD 221100
TAFACT
TAF
KACT 221120Z 2212/2312 VRB03KT 6SM BR SCT120 BKN250
     FM221500 11007KT P6SM SCT050 SCT250=



000
FTUS44 KFWD 221100
TAFFTW
TAF
KFTW 221120Z 2212/2312 VRB03KT 6SM BR SCT250
     FM221500 13008KT P6SM SCT040 SCT250=



000
FTUS44 KFWD 221100
TAFDFW
TAF
KDFW 221120Z 2212/2318 12004KT 6SM BR SCT250
     FM221500 13008KT P6SM SCT040 SCT250=



000
FTUS44 KFWD 220900 AAA
TAFDFW
TAF AMD
KDFW 220901Z 2209/2312 13004KT P6SM SCT250
     FM221200 13003KT 6SM BR FEW040 FEW250
     FM221500 13008KT P6SM SCT040 SCT250=



000
FTUS44 KFWD 220900 AAA
TAFFTW
TAF AMD
KFTW 220901Z 2209/2306 14003KT P6SM SCT250
     FM221200 VRB03KT 6SM BR FEW040 FEW250
     FM221500 13008KT P6SM SCT040 SCT250=



000
FTUS44 KFWD 220900 AAA
TAFACT
TAF AMD
KACT 220901Z 2209/2306 VRB03KT P6SM SCT250
     FM221200 VRB03KT 4SM BR FEW040 SCT250
     FM221500 11007KT P6SM SCT050 SCT250=



000
FTUS44 KFWD 220500
TAFFTW
TAF
KFTW 220520Z 2206/2306 14003KT P6SM SCT250
     FM221200 VRB03KT 6SM BR FEW040 FEW250
     FM221500 13008KT P6SM SCT040 SCT250=



000
FTUS44 KFWD 220500
TAFACT
TAF
KACT 220520Z 2206/2306 VRB03KT P6SM SCT250
     FM221000 VRB03KT 4SM BR FEW040 SCT250
     FM221500 11007KT P6SM SCT050 SCT250=



000
FTUS44 KFWD 220500
TAFFTW
TAF
KFTW 220520Z 2206/2306 14003KT P6SM SCT250
     FM221200 VRB03KT 6SM BR FEW040 FEW250
     FM221500 13008KT P6SM SCT040 SCT250=



000
FTUS44 KFWD 220500
TAFDFW
TAF
KDFW 220520Z 2206/2312 13004KT P6SM SCT250
     FM221200 13003KT 6SM BR FEW040 FEW250
     FM221500 13008KT P6SM SCT040 SCT250=



000
FTUS44 KFWD 220500
TAFACT
TAF
KACT 220520Z 2206/2306 VRB03KT P6SM SCT250
     FM221000 VRB03KT 4SM BR FEW040 SCT250
     FM221500 11007KT P6SM SCT050 SCT250=



000
FTUS44 KFWD 220500
TAFDFW
TAF
KDFW 220520Z 2206/2312 13004KT P6SM SCT250
     FM221200 13003KT 6SM BR FEW040 FEW250
     FM221500 13008KT P6SM SCT040 SCT250=



000
FTUS44 KFWD 220300 AAA
TAFACT
TAF AMD
KACT 220301Z 2203/2224 10005KT P6SM FEW250
     FM221000 VRB03KT 2SM BR FEW040 FEW250
     FM221500 11007KT P6SM SCT050 SCT250=



000
FTUS44 KFWD 220300 AAA
TAFDFW
TAF AMD
KDFW 220301Z 2203/2306 13005KT P6SM FEW250
     FM221200 13004KT 6SM BR FEW040 FEW250
     FM221500 13008KT P6SM SCT050 SCT250=



000
FTUS44 KFWD 220300 AAA
TAFFTW
TAF AMD
KFTW 220301Z 2203/2224 12005KT P6SM FEW250
     FM221200 13004KT 6SM BR FEW040 FEW250
     FM221500 13008KT P6SM SCT050 SCT250=



000
FTUS44 KFWD 212300
TAFDFW
TAF
KDFW 212320Z 2200/2306 13006KT P6SM FEW250
     FM221200 13004KT 6SM BR FEW040 FEW250
     FM221500 13008KT P6SM SCT050 SCT250=



000
FTUS44 KFWD 212300
TAFFTW
TAF
KFTW 212320Z 2200/2224 12006KT P6SM FEW250
     FM221200 13004KT 6SM BR FEW040 FEW250
     FM221500 13008KT P6SM SCT050 SCT250=



000
FTUS44 KFWD 212300
TAFACT
TAF
KACT 212320Z 2200/2224 10005KT P6SM FEW250
     FM221000 VRB03KT 2SM BR FEW040 FEW250
     FM221500 11007KT P6SM SCT050 SCT250=



000
FTUS44 KFWD 212300
TAFFTW
TAF
KFTW 212320Z 2200/2224 12006KT P6SM FEW250
     FM221200 13004KT 6SM BR FEW040 FEW250
     FM221500 13008KT P6SM SCT050 SCT250=



000
FTUS44 KFWD 212300
TAFDFW
TAF
KDFW 212320Z 2200/2306 13006KT P6SM FEW250
     FM221200 13004KT 6SM BR FEW040 FEW250
     FM221500 13008KT P6SM SCT050 SCT250=



000
FTUS44 KFWD 212300
TAFACT
TAF
KACT 212320Z 2200/2224 10005KT P6SM FEW250
     FM221000 VRB03KT 2SM BR FEW040 FEW250
     FM221500 11007KT P6SM SCT050 SCT250=



000
FTUS44 KFWD 212000 AAA
TAFDFW
TAF AMD
KDFW 212050Z 2120/2224 13006KT P6SM SCT250=



000
FTUS44 KFWD 212000 AAA
TAFFTW
TAF AMD
KFTW 212050Z 2120/2218 13006KT P6SM SCT250=



000
FTUS44 KFWD 212000 AAA
TAFACT
TAF AMD
KACT 212050Z 2120/2218 12005KT P6SM SCT250
      TEMPO 2211/2214 5SM BR=



000
FTUS44 KFWD 211700
TAFACT
TAF
KACT 211723Z 2118/2218 11005KT P6SM SCT250=



000
FTUS44 KFWD 211700
TAFDFW
TAF
KDFW 211723Z 2118/2224 13004KT P6SM SCT250=



000
FTUS44 KFWD 211700
TAFFTW
TAF
KFTW 211723Z 2118/2218 13004KT P6SM SCT250=



000
FTUS44 KFWD 211500 AAA
TAFFTW
TAF AMD
KFTW 211503Z 2115/2212 12004KT P6SM SCT250=



000
FTUS44 KFWD 211500 AAB
TAFACT
TAF AMD
KACT 211503Z 2115/2212 VRB03KT P6SM SCT250
     FM211700 10005KT P6SM SCT250=



000
FTUS44 KFWD 211500 AAA
TAFDFW
TAF AMD
KDFW 211503Z 2115/2218 12004KT P6SM SCT250=



000
FTUS44 KFWD 211200 AAA
TAFACT
TAF AMD
KACT 211217Z 2112/2212 VRB03KT 4SM BR SCT250
      TEMPO 2112/2114 2SM BR
     FM211500 11005KT P6SM SCT250=



000
FTUS44 KFWD 211100
TAFFTW
TAF
KFTW 211120Z 2112/2212 14004KT P6SM SCT250=



000
FTUS44 KFWD 211100
TAFACT
TAF
KACT 211120Z 2112/2212 VRB03KT 4SM BR SCT250
     FM211500 11005KT P6SM SCT250=



000
FTUS44 KFWD 211100
TAFFTW
TAF
KFTW 211120Z 2112/2212 14004KT P6SM SCT250=



000
FTUS44 KFWD 211100
TAFDFW
TAF
KDFW 211120Z 2112/2218 14004KT P6SM SCT250=



000
FTUS44 KFWD 211100
TAFDFW
TAF
KDFW 211120Z 2112/2218 14004KT P6SM SCT250=



000
FTUS44 KFWD 211100
TAFACT
TAF
KACT 211120Z 2112/2212 VRB03KT 4SM BR SCT250
     FM211500 11005KT P6SM SCT250=



000
FTUS44 KFWD 210900 AAA
TAFACT
TAF AMD
KACT 210903Z 2109/2206 VRB03KT 4SM BR SCT250
     FM211500 11005KT P6SM SCT250=



000
FTUS44 KFWD 210900 AAA
TAFDFW
TAF AMD
KDFW 210903Z 2109/2212 14004KT P6SM SCT250=



000
FTUS44 KFWD 210900 AAA
TAFFTW
TAF AMD
KFTW 210903Z 2109/2206 14004KT P6SM SCT250=



000
FTUS44 KFWD 210500
TAFACT
TAF
KACT 210520Z 2106/2206 14005KT P6SM SCT250
      TEMPO 2112/2114 5SM BR=



000
FTUS44 KFWD 210500
TAFFTW
TAF
KFTW 210520Z 2106/2206 14004KT P6SM SCT250=



000
FTUS44 KFWD 210500
TAFDFW
TAF
KDFW 210520Z 2106/2212 14004KT P6SM SCT250=



000
FTUS44 KFWD 210200 AAA
TAFACT
TAF AMD
KACT 210256Z 2103/2124 13004KT P6SM SCT250=



000
FTUS44 KFWD 210200 AAA
TAFDFW
TAF AMD
KDFW 210256Z 2103/2206 13004KT P6SM SCT250=



000
FTUS44 KFWD 210200 AAA
TAFDFW
TAF AMD
KDFW 210256Z 2103/2206 13004KT P6SM SCT250=



000
FTUS44 KFWD 210200 AAA
TAFACT
TAF AMD
KACT 210256Z 2103/2124 13004KT P6SM SCT250=



000
FTUS44 KFWD 210200 AAA
TAFFTW
TAF AMD
KFTW 210256Z 2103/2124 13004KT P6SM SCT250=



000
FTUS44 KFWD 210200 AAA
TAFFTW
TAF AMD
KFTW 210256Z 2103/2124 13004KT P6SM SCT250=



000
FTUS44 KFWD 202300
TAFDFW
TAF
KDFW 202333Z 2100/2206 13004KT P6SM SCT250=



000
FTUS44 KFWD 202300
TAFACT
TAF
KACT 202333Z 2100/2124 13004KT P6SM SCT250=



000
FTUS44 KFWD 202300
TAFFTW
TAF
KFTW 202333Z 2100/2124 13004KT P6SM SCT250=



000
FTUS44 KFWD 202000 AAA
TAFACT
TAF AMD
KACT 202050Z 2021/2118 03005KT P6SM FEW040 SCT060
      TEMPO 2111/2114 00000KT 4SM BR SKC=



000
FTUS44 KFWD 202000 AAA
TAFDFW
TAF AMD
KDFW 202050Z 2021/2124 13004KT P6SM FEW050 SCT250=



000
FTUS44 KFWD 202000 AAA
TAFFTW
TAF AMD
KFTW 202050Z 2021/2118 13004KT P6SM FEW050 SCT250=



000
FTUS44 KFWD 201700
TAFDFW
TAF
KDFW 201720Z 2018/2124 19006KT P6SM FEW060 SCT300
     FM210000 14004KT P6SM SCT300=



000
FTUS44 KFWD 201700
TAFACT
TAF
KACT 201720Z 2018/2118 12004KT P6SM SCT050 SCT300
      TEMPO 2111/2114 00000KT 4SM BR=



000
FTUS44 KFWD 201700
TAFFTW
TAF
KFTW 201720Z 2018/2118 19006KT P6SM FEW060 SCT300
     FM210000 14004KT P6SM SCT300=



000
FTUS44 KFWD 201400 AAA
TAFFTW
TAF AMD
KFTW 201458Z 2015/2112 15005KT P6SM SCT060 SCT250=



000
FTUS44 KFWD 201400 AAA
TAFACT
TAF AMD
KACT 201458Z 2015/2112 12004KT P6SM FEW050 SCT250=



000
FTUS44 KFWD 201400 AAA
TAFDFW
TAF AMD
KDFW 201458Z 2015/2118 15005KT P6SM SCT060 SCT250=



000
FTUS44 KFWD 201100
TAFACT
TAF
KACT 201131Z 2012/2112 14006KT P6SM SCT050 BKN200=



000
FTUS44 KFWD 201100
TAFDFW
TAF
KDFW 201131Z 2012/2118 15006KT P6SM FEW050 BKN200=



000
FTUS44 KFWD 201100
TAFFTW
TAF
KFTW 201131Z 2012/2112 15006KT P6SM FEW050 BKN200=



000
FTUS44 KFWD 200900 AAA
TAFDFW
TAF AMD
KDFW 200901Z 2009/2112 14006KT P6SM FEW050 BKN200=



000
FTUS44 KFWD 200900 AAA
TAFFTW
TAF AMD
KFTW 200901Z 2009/2106 14006KT P6SM FEW050 BKN200=



000
FTUS44 KFWD 200900 AAA
TAFACT
TAF AMD
KACT 200901Z 2009/2106 14006KT P6SM SCT050 BKN200=



000
FTUS44 KFWD 200500
TAFDFW
TAF
KDFW 200532Z 2006/2112 14006KT P6SM FEW050 SCT200=



000
FTUS44 KFWD 200500
TAFACT
TAF
KACT 200532Z 2006/2106 14006KT P6SM SCT050 BKN200=



000
FTUS44 KFWD 200500
TAFFTW
TAF
KFTW 200532Z 2006/2106 14006KT P6SM FEW050 SCT200=



000
FTUS44 KFWD 200300 AAA
TAFDFW
TAF AMD
KDFW 200300Z 2003/2106 15006KT P6SM FEW050 SCT200=



000
FTUS44 KFWD 200300 AAA
TAFFTW
TAF AMD
KFTW 200300Z 2003/2024 15006KT P6SM FEW050 SCT200=



000
FTUS44 KFWD 200300 AAA
TAFACT
TAF AMD
KACT 200300Z 2003/2024 15006KT P6SM FEW050 SCT200=



000
FTUS44 KFWD 192300
TAFACT
TAF
KACT 192320Z 2000/2024 15006KT P6SM FEW050 SCT200=



000
FTUS44 KFWD 192300
TAFFTW
TAF
KFTW 192320Z 2000/2024 15006KT P6SM FEW050 SCT200=



000
FTUS44 KFWD 192300
TAFDFW
TAF
KDFW 192320Z 2000/2106 15006KT P6SM FEW050 SCT200=



000
FTUS44 KFWD 192300
TAFFTW
TAF
KFTW 192320Z 2000/2024 15006KT P6SM FEW050 SCT200=



000
FTUS44 KFWD 192300
TAFDFW
TAF
KDFW 192320Z 2000/2106 15006KT P6SM FEW050 SCT200=



000
FTUS44 KFWD 192300
TAFACT
TAF
KACT 192320Z 2000/2024 15006KT P6SM FEW050 SCT200=



    US Dept of Commerce
    National Oceanic and Atmospheric Administration
    National Weather Service
    1325 East West Highway
    Silver Spring, MD 20910
    Page Author: NWS Internet Services Team
Disclaimer
Information Quality
Credits
Glossary
Privacy Policy
Freedom of Information Act (FOIA)
About Us
Career Opportunities